Time;durP1;ratioP1;P1;durP2;ratioP2;P2;SDS_P1;SDS_P2;PMS_P1;PMS_P2;Temp;Humidity;BMP_temperature;BMP_pressure;BME280_temperature;BME280_humidity;BME280_pressure;Samples;Min_cycle;Max_cycle;Signal;HPM_P1;HPM_P2
2022/04/23 00:02:19;;;;;;;36.70;20.67;;;2.00;99.90;;;;;;10280766;28;20210;-84
2022/04/23 00:07:21;;;;;;;35.23;19.87;;;2.00;99.90;;;;;;10298809;28;20269;-84
2022/04/23 00:12:25;;;;;;;33.03;20.73;;;2.00;99.90;;;;;;10280195;28;20214;-84
2022/04/23 00:17:28;;;;;;;34.57;19.47;;;1.90;99.90;;;;;;10297181;28;20580;-84
2022/04/23 00:22:30;;;;;;;34.73;21.13;;;2.20;99.90;;;;;;10284235;28;20210;-84
2022/04/23 00:27:32;;;;;;;27.83;19.23;;;2.60;99.90;;;;;;10256930;29;20230;-84
2022/04/23 00:32:35;;;;;;;31.03;18.63;;;2.60;99.90;;;;;;10240316;28;20202;-84
2022/04/23 00:37:38;;;;;;;29.40;18.67;;;2.00;99.90;;;;;;10263426;28;20230;-84
2022/04/23 00:42:52;;;;;;;31.93;20.17;;;1.70;99.90;;;;;;10255778;29;20222;-84
2022/04/23 00:47:55;;;;;;;33.23;19.73;;;1.60;99.90;;;;;;10255344;29;20230;-84
2022/04/23 00:53:02;;;;;;;33.53;20.00;;;1.60;99.90;;;;;;10257202;29;20207;-84
2022/04/23 00:58:05;;;;;;;35.20;20.83;;;1.50;99.90;;;;;;10255530;28;20242;-84
2022/04/23 01:03:07;;;;;;;32.50;19.73;;;1.70;99.90;;;;;;10240360;29;20249;-84
2022/04/23 01:08:14;;;;;;;28.83;18.43;;;2.10;99.90;;;;;;10253782;29;20258;-84
2022/04/23 01:13:17;;;;;;;34.53;20.87;;;2.70;99.90;;;;;;10227586;29;20703;-84
2022/04/23 01:18:20;;;;;;;31.20;19.57;;;2.80;99.90;;;;;;10250726;29;20642;-84
2022/04/23 01:23:23;;;;;;;31.80;18.90;;;2.30;99.90;;;;;;10249923;29;20246;-84
2022/04/23 01:28:28;;;;;;;27.60;18.43;;;2.20;99.90;;;;;;10241666;29;20262;-84
2022/04/23 01:33:33;;;;;;;28.97;19.07;;;1.80;99.90;;;;;;10250211;29;20314;-84
2022/04/23 01:38:35;;;;;;;26.63;17.47;;;1.50;99.90;;;;;;10263781;28;20241;-84
2022/04/23 01:43:38;;;;;;;26.93;17.90;;;1.40;99.90;;;;;;10271570;28;20662;-84
2022/04/23 01:48:41;;;;;;;31.20;19.03;;;1.40;99.90;;;;;;10289391;28;20257;-84
2022/04/23 01:53:43;;;;;;;32.20;20.10;;;1.40;99.90;;;;;;10272450;28;20274;-84
2022/04/23 01:58:46;;;;;;;33.13;21.53;;;1.50;99.90;;;;;;10269922;28;20252;-84
2022/04/23 02:03:51;;;;;;;34.70;22.07;;;1.60;99.90;;;;;;10249021;28;20654;-84
2022/04/23 02:08:54;;;;;;;32.33;19.77;;;1.70;99.90;;;;;;10248441;28;20253;-85
2022/04/23 02:13:56;;;;;;;30.20;19.47;;;1.50;99.90;;;;;;10259442;28;20302;-84
2022/04/23 02:18:59;;;;;;;29.30;18.57;;;1.30;99.90;;;;;;10270762;28;20249;-84
2022/04/23 02:24:04;;;;;;;34.40;20.47;;;1.20;99.90;;;;;;10259332;28;20245;-84
2022/04/23 02:29:06;;;;;;;30.60;19.57;;;1.30;99.90;;;;;;10248902;28;20254;-85
2022/04/23 02:34:09;;;;;;;35.17;20.03;;;1.30;99.90;;;;;;10247896;29;20619;-84
2022/04/23 02:39:11;;;;;;;30.97;17.93;;;1.20;99.90;;;;;;10280783;28;20312;-84
2022/04/23 02:44:15;;;;;;;28.50;19.80;;;1.00;99.90;;;;;;10286525;28;20302;-84
2022/04/23 02:49:18;;;;;;;33.43;20.93;;;1.10;99.90;;;;;;10287564;28;20425;-85
2022/04/23 02:54:20;;;;;;;34.03;19.30;;;1.50;99.90;;;;;;10269618;28;20237;-84
2022/04/23 02:59:23;;;;;;;32.10;19.03;;;1.00;99.90;;;;;;10278221;28;20257;-84
2022/04/23 03:04:25;;;;;;;32.07;18.97;;;0.90;99.90;;;;;;10283294;28;20249;-84
2022/04/23 03:09:28;;;;;;;32.60;20.03;;;0.90;99.90;;;;;;10270168;28;20726;-85
2022/04/23 03:14:31;;;;;;;38.63;23.50;;;1.10;99.90;;;;;;10276402;28;20234;-85
2022/04/23 03:19:33;;;;;;;36.07;20.63;;;1.30;99.90;;;;;;10286654;28;20300;-83
2022/04/23 03:24:36;;;;;;;34.90;21.67;;;1.80;99.90;;;;;;10295124;28;20253;-83
2022/04/23 03:29:39;;;;;;;39.37;22.97;;;2.00;99.90;;;;;;10268907;28;20294;-83
2022/04/23 03:34:42;;;;;;;35.63;22.70;;;1.80;99.90;;;;;;10276452;28;20241;-83
2022/04/23 03:39:44;;;;;;;41.43;23.37;;;2.00;99.90;;;;;;10293374;28;20744;-84
2022/04/23 03:44:47;;;;;;;41.53;23.07;;;2.30;99.90;;;;;;10277047;28;20691;-84
2022/04/23 03:49:49;;;;;;;33.83;22.53;;;1.90;99.90;;;;;;10293131;28;20261;-84
2022/04/23 03:54:52;;;;;;;39.13;22.20;;;1.70;99.90;;;;;;10293411;28;20297;-84
2022/04/23 03:59:54;;;;;;;35.47;22.00;;;1.90;99.90;;;;;;10264942;28;20265;-83
2022/04/23 04:04:57;;;;;;;33.83;20.97;;;1.50;99.90;;;;;;10275618;28;20281;-83
2022/04/23 04:10:01;;;;;;;34.97;21.70;;;1.20;99.90;;;;;;10291403;28;20257;-84
2022/04/23 04:15:05;;;;;;;39.37;23.50;;;1.40;99.90;;;;;;10275368;28;20242;-84
2022/04/23 04:20:13;;;;;;;46.77;24.20;;;2.00;99.90;;;;;;10275619;28;20273;-84
2022/04/23 04:25:17;;;;;;;38.83;24.30;;;2.40;99.90;;;;;;10268736;28;20270;-84
2022/04/23 04:30:20;;;;;;;37.23;22.73;;;2.80;99.90;;;;;;10288740;28;20320;-84
2022/04/23 04:35:26;;;;;;;31.63;21.83;;;2.90;99.90;;;;;;10291827;28;20234;-84
2022/04/23 04:40:28;;;;;;;35.93;21.53;;;3.10;99.90;;;;;;10274162;28;20604;-84
2022/04/23 04:45:30;;;;;;;34.27;21.37;;;3.20;99.90;;;;;;10265510;28;20238;-83
2022/04/23 04:50:33;;;;;;;41.30;23.97;;;3.50;99.90;;;;;;10269457;28;20261;-84
2022/04/23 04:55:36;;;;;;;34.87;21.30;;;3.70;99.90;;;;;;10272322;28;20300;-84
2022/04/23 05:00:39;;;;;;;32.40;21.20;;;4.00;99.90;;;;;;10273152;28;20242;-83
2022/04/23 05:05:44;;;;;;;33.40;22.30;;;4.00;99.90;;;;;;10281657;28;20241;-84
2022/04/23 05:10:47;;;;;;;39.23;22.87;;;4.20;99.90;;;;;;10269810;28;20371;-84
2022/04/23 05:15:50;;;;;;;32.20;20.23;;;4.40;99.90;;;;;;10274103;28;20278;-84
2022/04/23 05:20:53;;;;;;;33.47;21.37;;;4.70;99.90;;;;;;10270670;28;20285;-83
2022/04/23 05:25:56;;;;;;;29.60;19.57;;;5.00;99.90;;;;;;10274427;28;20268;-83
2022/04/23 05:30:59;;;;;;;30.43;20.67;;;5.20;99.90;;;;;;10270924;28;20312;-83
2022/04/23 05:36:05;;;;;;;29.87;18.60;;;5.40;99.90;;;;;;10254692;28;20214;-83
2022/04/23 05:41:08;;;;;;;32.53;19.97;;;5.60;99.90;;;;;;10235818;28;20763;-83
2022/04/23 05:46:10;;;;;;;30.63;19.00;;;5.80;99.90;;;;;;10283757;28;20296;-83
2022/04/23 05:51:16;;;;;;;27.23;17.80;;;6.10;99.90;;;;;;10288899;28;20265;-83
2022/04/23 05:56:19;;;;;;;26.17;17.93;;;6.10;99.90;;;;;;10284636;28;20245;-83
2022/04/23 06:01:21;;;;;;;25.03;17.17;;;6.50;99.90;;;;;;10270232;28;20251;-83
2022/04/23 06:06:24;;;;;;;25.73;18.07;;;6.50;99.90;;;;;;10271004;28;20245;-83
2022/04/23 06:11:26;;;;;;;24.60;16.70;;;6.60;99.90;;;;;;10232318;28;20306;-84
2022/04/23 06:16:29;;;;;;;20.77;16.03;;;6.90;99.90;;;;;;10267026;28;20246;-84
2022/04/23 06:21:32;;;;;;;21.10;15.93;;;7.00;99.90;;;;;;10286731;28;20241;-84
2022/04/23 06:26:34;;;;;;;23.80;16.60;;;7.10;99.90;;;;;;10268555;28;20300;-84
2022/04/23 06:31:37;;;;;;;22.60;15.40;;;7.50;99.90;;;;;;10279087;28;21132;-84
2022/04/23 06:36:40;;;;;;;24.77;14.80;;;7.80;99.90;;;;;;10267667;28;20273;-91
2022/04/23 06:41:42;;;;;;;18.60;13.50;;;9.00;99.90;;;;;;10263271;28;20266;-91
2022/04/23 06:46:45;;;;;;;21.30;14.83;;;9.50;99.90;;;;;;10286605;28;20245;-84
2022/04/23 06:51:47;;;;;;;20.53;14.97;;;8.80;99.90;;;;;;10287105;28;20316;-84
2022/04/23 06:56:50;;;;;;;19.80;14.83;;;9.00;99.90;;;;;;10275252;28;20238;-84
2022/04/23 07:01:52;;;;;;;20.73;14.47;;;9.10;99.90;;;;;;10239246;28;20250;-84
2022/04/23 07:06:55;;;;;;;22.40;15.17;;;9.40;99.90;;;;;;10276356;28;20699;-84
2022/04/23 07:11:58;;;;;;;18.87;14.37;;;9.70;99.90;;;;;;10293767;28;20265;-84
2022/04/23 07:17:00;;;;;;;22.30;13.37;;;9.90;99.90;;;;;;10277758;28;20324;-84
2022/04/23 07:22:03;;;;;;;21.30;11.87;;;10.40;99.90;;;;;;10258306;28;20707;-84
2022/04/23 07:27:06;;;;;;;15.50;10.73;;;11.10;97.20;;;;;;10272801;28;20261;-84
2022/04/23 07:32:08;;;;;;;16.57;11.33;;;11.30;94.10;;;;;;10274891;28;20725;-84
2022/04/23 07:37:29;;;;;;;14.10;11.70;;;11.80;91.90;;;;;;10276251;28;20238;-84
2022/04/23 07:42:32;;;;;;;11.07;9.87;;;11.30;92.30;;;;;;10263513;28;20245;-85
2022/04/23 07:47:34;;;;;;;16.47;9.97;;;11.70;90.70;;;;;;10291451;28;20248;-84
2022/04/23 07:52:38;;;;;;;9.73;7.90;;;12.90;90.30;;;;;;10277052;28;20642;-84
2022/04/23 07:57:40;;;;;;;16.67;11.90;;;13.10;83.60;;;;;;10276673;28;20650;-84
2022/04/23 08:02:43;;;;;;;10.70;8.80;;;13.90;85.00;;;;;;10293193;28;20311;-84
2022/04/23 08:07:46;;;;;;;10.00;8.60;;;13.30;81.20;;;;;;10291634;28;20244;-84
2022/04/23 08:12:48;;;;;;;9.87;7.83;;;13.30;81.00;;;;;;10260384;28;20352;-84
2022/04/23 08:17:51;;;;;;;14.30;9.43;;;12.90;79.70;;;;;;10286682;28;20782;-84
2022/04/23 08:22:53;;;;;;;9.17;8.07;;;13.40;82.90;;;;;;10240690;29;20277;-84
2022/04/23 08:33:18;;;;;;;12.37;8.17;;;13.40;78.20;;;;;;10281050;28;20613;-84
2022/04/23 08:38:21;;;;;;;10.60;8.93;;;13.90;76.40;;;;;;10273200;28;20252;-85
2022/04/23 08:43:23;;;;;;;9.93;7.43;;;14.10;78.70;;;;;;10276843;28;20214;-90
2022/04/23 08:48:33;;;;;;;8.73;6.00;;;14.70;75.70;;;;;;10274001;28;20218;-84
2022/04/23 08:53:40;;;;;;;6.03;5.43;;;14.90;72.70;;;;;;10291509;28;20241;-83
2022/04/23 08:58:43;;;;;;;7.70;6.20;;;14.60;67.60;;;;;;10291106;28;20217;-85
2022/04/23 09:03:46;;;;;;;10.07;6.37;;;14.50;73.90;;;;;;10278162;28;20246;-84
2022/04/23 09:09:19;;;;;;;12.37;7.17;;;14.80;71.50;;;;;;10250930;28;20269;-84
2022/04/23 09:14:25;;;;;;;8.77;6.90;;;15.80;70.80;;;;;;10252531;28;20277;-84
2022/04/23 09:24:51;;;;;;;8.47;6.83;;;15.00;69.80;;;;;;10280250;28;20285;-84
2022/04/23 09:29:58;;;;;;;8.63;7.30;;;15.80;68.00;;;;;;10271159;28;20722;-84
2022/04/23 09:35:04;;;;;;;8.10;6.23;;;16.10;68.30;;;;;;10288577;28;20301;-84
2022/04/23 09:40:25;;;;;;;6.70;6.00;;;16.10;66.90;;;;;;10289077;28;20261;-84
2022/04/23 09:45:30;;;;;;;8.80;6.83;;;15.40;65.00;;;;;;10271771;28;20245;-84
2022/04/23 09:50:47;;;;;;;12.07;9.27;;;15.40;66.20;;;;;;10288641;28;20265;-84
2022/04/23 09:55:50;;;;;;;10.83;7.17;;;15.90;69.30;;;;;;10248864;28;20293;-83
2022/04/23 10:00:53;;;;;;;8.77;7.87;;;15.80;65.90;;;;;;10265206;28;20285;-84
2022/04/23 10:05:57;;;;;;;14.40;11.27;;;16.20;67.00;;;;;;10273626;28;20633;-84
2022/04/23 10:11:05;;;;;;;16.03;12.73;;;16.40;69.10;;;;;;10288630;28;20691;-85
2022/04/23 10:16:10;;;;;;;8.27;7.50;;;16.70;68.40;;;;;;10265713;28;20241;-85
2022/04/23 10:21:21;;;;;;;10.10;7.07;;;16.50;65.80;;;;;;10271499;28;20254;-92
2022/04/23 10:26:46;;;;;;;6.90;5.97;;;16.40;68.60;;;;;;10270540;28;20213;-93
2022/04/23 10:32:10;;;;;;;9.43;6.43;;;16.70;67.10;;;;;;10271455;28;20317;-85
2022/04/23 10:37:27;;;;;;;11.40;6.70;;;16.90;66.40;;;;;;10258156;28;20302;-85
2022/04/23 10:42:32;;;;;;;6.80;6.10;;;16.70;64.70;;;;;;10175460;29;20211;-85
2022/04/23 10:47:36;;;;;;;10.77;6.90;;;16.90;64.40;;;;;;10208296;29;20306;-85
2022/04/23 10:52:38;;;;;;;10.03;7.67;;;17.10;65.40;;;;;;10208670;29;20290;-85
2022/04/23 10:57:50;;;;;;;9.40;8.17;;;17.00;64.60;;;;;;10191353;29;20210;-85
2022/04/23 11:03:10;;;;;;;12.13;8.97;;;16.90;66.20;;;;;;10207460;29;20223;-85
2022/04/23 11:13:42;;;;;;;12.50;11.20;;;17.10;59.30;;;;;;10208618;29;20219;-85
2022/04/23 11:18:48;;;;;;;6.77;6.07;;;16.90;65.30;;;;;;10207493;29;20610;-85
2022/04/23 11:23:52;;;;;;;5.93;5.43;;;16.40;60.30;;;;;;10207679;29;20211;-87
2022/04/23 11:28:59;;;;;;;7.37;6.67;;;15.90;59.80;;;;;;10207412;29;20300;-84
2022/04/23 11:34:02;;;;;;;6.60;5.87;;;16.00;61.80;;;;;;10206232;29;20255;-85
2022/04/23 11:39:09;;;;;;;8.63;6.43;;;15.60;62.90;;;;;;10206910;29;20344;-84
2022/04/23 11:44:14;;;;;;;14.63;12.23;;;16.00;61.60;;;;;;10214273;29;20287;-84
2022/04/23 11:49:31;;;;;;;6.97;6.27;;;16.50;68.10;;;;;;10214402;29;20254;-84
2022/04/23 11:54:37;;;;;;;8.43;6.33;;;16.90;63.00;;;;;;10212443;29;20286;-84
2022/04/23 11:59:44;;;;;;;9.17;6.57;;;17.20;58.60;;;;;;10214034;29;20207;-85
2022/04/23 12:04:49;;;;;;;7.80;5.93;;;17.20;58.40;;;;;;10213377;29;20635;-85
2022/04/23 12:09:51;;;;;;;9.13;6.73;;;17.00;59.70;;;;;;10196580;29;20661;-84
2022/04/23 12:14:59;;;;;;;6.13;5.57;;;16.50;58.60;;;;;;10213304;29;20247;-84
2022/04/23 12:20:10;;;;;;;6.37;5.73;;;16.20;62.50;;;;;;10213163;29;20278;-85
2022/04/23 12:25:16;;;;;;;14.27;10.53;;;16.00;58.90;;;;;;10213059;29;20246;-84
2022/04/23 12:41:02;;;;;;;8.10;5.70;;;15.60;61.00;;;;;;10211679;29;20693;-85
2022/04/23 12:46:09;;;;;;;10.67;5.57;;;15.70;62.20;;;;;;10214240;29;20243;-85
2022/04/23 12:51:11;;;;;;;6.03;5.17;;;15.50;60.60;;;;;;10211913;29;20313;-86
2022/04/23 12:56:31;;;;;;;9.33;7.90;;;15.60;60.00;;;;;;10211908;29;20806;-85
2022/04/23 13:01:34;;;;;;;17.13;14.07;;;15.90;66.70;;;;;;10193866;29;20223;-85
2022/04/23 13:11:59;;;;;;;15.63;11.47;;;16.80;62.50;;;;;;10232082;29;20830;-85
2022/04/23 13:17:04;;;;;;;17.13;13.77;;;16.90;64.10;;;;;;10250138;29;20234;-86
2022/04/23 13:22:06;;;;;;;20.07;9.00;;;17.00;66.50;;;;;;10232594;29;20274;-86
2022/04/23 13:27:09;;;;;;;7.30;5.83;;;16.80;56.80;;;;;;10233244;29;20252;-85
2022/04/23 13:32:11;;;;;;;6.10;5.23;;;16.70;55.70;;;;;;10250190;29;20311;-85
2022/04/23 13:37:14;;;;;;;6.10;5.50;;;16.70;60.20;;;;;;10252355;28;20263;-84
2022/04/23 13:42:17;;;;;;;6.33;5.53;;;16.80;61.30;;;;;;10288685;28;20217;-94
2022/04/23 13:47:20;;;;;;;6.53;5.37;;;16.50;60.00;;;;;;10282600;28;20267;-86
2022/04/23 13:52:22;;;;;;;6.43;5.20;;;16.60;56.90;;;;;;10283963;28;20261;-86
2022/04/23 13:57:25;;;;;;;8.90;5.70;;;16.50;59.60;;;;;;10283280;28;20292;-86
2022/04/23 14:13:10;;;;;;;8.77;6.00;;;17.00;64.80;;;;;;10288580;28;20265;-86
2022/04/23 14:18:13;;;;;;;8.03;7.20;;;16.60;59.60;;;;;;10260576;28;20227;-87
2022/04/23 14:23:15;;;;;;;6.03;5.43;;;16.60;64.00;;;;;;10278033;28;20248;-86
2022/04/23 14:28:18;;;;;;;14.47;11.73;;;16.80;56.90;;;;;;10270556;28;20292;-87
2022/04/23 14:33:21;;;;;;;12.63;10.80;;;16.80;64.70;;;;;;10274065;28;20261;-87
2022/04/23 14:38:23;;;;;;;11.50;6.17;;;16.40;64.00;;;;;;10273009;28;20802;-87
2022/04/23 14:43:28;;;;;;;13.43;11.47;;;16.20;59.40;;;;;;10305056;28;20346;-87
2022/04/23 14:48:30;;;;;;;9.97;8.53;;;16.50;66.10;;;;;;10277910;28;20656;-87
2022/04/23 14:53:33;;;;;;;12.57;5.30;;;16.30;61.30;;;;;;9919168;28;10000008;-87
2022/04/23 14:58:36;;;;;;;9.27;7.37;;;15.80;60.70;;;;;;10267297;28;20237;-87
2022/04/23 15:03:38;;;;;;;5.77;5.23;;;15.70;60.80;;;;;;10269495;28;20242;-87
2022/04/23 15:08:41;;;;;;;5.53;5.03;;;15.50;57.60;;;;;;10253706;28;20245;-87
2022/04/23 15:13:43;;;;;;;7.10;5.70;;;15.70;61.10;;;;;;10284294;28;20300;-87
2022/04/23 15:18:46;;;;;;;8.77;6.90;;;15.50;61.60;;;;;;10289843;28;20253;-87
2022/04/23 15:23:49;;;;;;;6.27;5.50;;;15.10;62.10;;;;;;10291655;28;20276;-87
2022/04/23 15:28:51;;;;;;;10.30;5.77;;;15.20;62.00;;;;;;10274574;28;20304;-87
2022/04/23 15:33:53;;;;;;;7.80;5.60;;;14.80;64.50;;;;;;10283323;28;20273;-87
2022/04/23 15:38:59;;;;;;;6.13;5.33;;;14.50;66.00;;;;;;10261529;28;20258;-87
2022/04/23 15:44:01;;;;;;;5.73;4.90;;;14.50;65.30;;;;;;10249086;29;20234;-87
2022/04/23 15:49:04;;;;;;;7.40;5.87;;;14.50;66.50;;;;;;10229850;29;20254;-88
2022/04/23 15:54:06;;;;;;;15.47;12.70;;;15.00;64.60;;;;;;10251578;29;20269;-87
2022/04/23 15:59:09;;;;;;;16.83;13.17;;;15.60;68.60;;;;;;10235552;29;20869;-87
2022/04/23 16:04:12;;;;;;;17.73;13.50;;;16.10;68.50;;;;;;10217595;29;20250;-88
2022/04/23 16:09:15;;;;;;;8.97;7.67;;;16.30;67.00;;;;;;10251996;29;20298;-88
2022/04/23 16:14:18;;;;;;;14.30;12.20;;;16.50;61.70;;;;;;10245147;28;20286;-87
2022/04/23 16:19:41;;;;;;;12.17;9.67;;;16.50;65.10;;;;;;10207806;29;20242;-88
2022/04/23 16:24:46;;;;;;;10.40;7.63;;;16.50;64.80;;;;;;10250185;29;20289;-87
2022/04/23 16:29:48;;;;;;;14.17;12.27;;;16.70;61.20;;;;;;10238618;28;20249;-87
2022/04/23 16:34:51;;;;;;;12.13;8.57;;;16.50;67.00;;;;;;10251455;29;20700;-88
2022/04/23 16:50:40;;;;;;;10.30;9.20;;;16.50;63.40;;;;;;10288204;28;20641;-89
2022/04/23 16:55:42;;;;;;;14.77;12.37;;;16.30;67.90;;;;;;10289402;28;20618;-89
2022/04/23 17:00:45;;;;;;;8.57;7.57;;;16.50;65.80;;;;;;10290999;28;20346;-88
2022/04/23 17:05:47;;;;;;;12.30;9.77;;;16.20;62.20;;;;;;10271807;28;20811;-87
2022/04/23 17:10:50;;;;;;;8.20;6.83;;;16.20;63.00;;;;;;10289973;28;20696;-87
2022/04/23 17:15:52;;;;;;;20.73;14.07;;;15.70;59.90;;;;;;10290506;28;20284;-88
2022/04/23 17:20:54;;;;;;;17.03;12.37;;;15.00;62.50;;;;;;10272333;28;20746;-88
2022/04/23 17:25:59;;;;;;;36.93;21.13;;;15.00;70.90;;;;;;10270059;28;20241;-88
2022/04/23 17:31:02;;;;;;;27.77;17.80;;;14.70;65.80;;;;;;10251356;28;20257;-88
2022/04/23 17:36:04;;;;;;;30.60;19.90;;;14.00;66.00;;;;;;10272633;28;20698;-90
2022/04/23 17:41:07;;;;;;;10.63;7.87;;;13.30;67.80;;;;;;10264135;28;20237;-91
2022/04/23 17:46:09;;;;;;;9.43;6.33;;;13.00;68.40;;;;;;10281065;28;20217;-90
2022/04/23 17:51:13;;;;;;;16.43;10.90;;;12.50;69.10;;;;;;10259571;28;20339;-90
2022/04/23 17:56:18;;;;;;;58.60;25.40;;;12.60;79.10;;;;;;10256519;28;20845;-90
2022/04/23 18:12:09;;;;;;;26.87;13.57;;;12.20;77.40;;;;;;10275488;28;20319;-90
2022/04/23 18:17:16;;;;;;;49.97;18.67;;;11.30;78.60;;;;;;10264101;28;20238;-89
2022/04/23 18:22:21;;;;;;;18.80;13.97;;;11.80;88.30;;;;;;10274463;28;20296;-90
2022/04/23 18:27:23;;;;;;;19.80;12.53;;;11.90;91.30;;;;;;10269473;28;20314;-90
2022/04/23 18:32:26;;;;;;;24.67;13.90;;;12.20;90.80;;;;;;10285247;28;20273;-88
2022/04/23 18:37:28;;;;;;;69.40;24.03;;;12.10;90.50;;;;;;10287438;28;20257;-88
2022/04/23 18:42:31;;;;;;;40.53;19.97;;;12.10;86.90;;;;;;10264738;28;21040;-88
2022/04/23 18:47:34;;;;;;;29.60;14.60;;;12.00;91.20;;;;;;9937937;28;10000296;-90
2022/04/23 18:52:36;;;;;;;182.40;55.10;;;12.20;92.50;;;;;;10268227;28;20794;-90
2022/04/23 18:57:39;;;;;;;46.50;21.17;;;12.00;89.30;;;;;;10270753;28;20237;-89
2022/04/23 19:02:42;;;;;;;52.60;20.00;;;11.50;92.70;;;;;;10283050;28;20699;-89
2022/04/23 19:07:44;;;;;;;381.60;104.17;;;11.60;93.70;;;;;;10266372;28;20241;-90
2022/04/23 19:12:47;;;;;;;428.43;118.10;;;11.50;90.80;;;;;;10268385;28;20265;-90
2022/04/23 19:17:49;;;;;;;470.53;124.47;;;11.30;92.40;;;;;;10282391;28;20245;-89
2022/04/23 19:28:13;;;;;;;303.67;91.33;;;9.80;90.70;;;;;;10285470;28;20683;-89
2022/04/23 19:33:16;;;;;;;54.93;22.67;;;11.10;95.20;;;;;;10286233;28;20734;-89
2022/04/23 19:38:18;;;;;;;97.57;33.07;;;11.70;96.30;;;;;;10269249;28;20226;-89
2022/04/23 19:43:21;;;;;;;54.17;23.90;;;11.40;95.90;;;;;;10267870;28;20233;-89
2022/04/23 19:48:23;;;;;;;126.17;46.77;;;11.60;95.80;;;;;;10269341;28;20222;-89
2022/04/23 19:53:26;;;;;;;177.27;67.20;;;10.50;93.00;;;;;;10237001;29;20753;-89
2022/04/23 19:58:30;;;;;;;54.37;23.70;;;11.10;93.00;;;;;;10260524;28;20931;-90
2022/04/23 20:03:33;;;;;;;91.73;39.50;;;11.40;97.10;;;;;;10271503;28;20214;-89
2022/04/23 20:08:36;;;;;;;84.50;38.63;;;11.40;96.80;;;;;;10257938;28;20234;-90
2022/04/23 20:13:38;;;;;;;61.07;29.83;;;11.20;96.10;;;;;;10271699;28;20253;-90
2022/04/23 20:18:41;;;;;;;123.23;48.73;;;11.60;97.80;;;;;;10293110;28;20233;-90
2022/04/23 20:23:43;;;;;;;33.63;19.03;;;12.30;93.20;;;;;;10293476;28;20679;-90
2022/04/23 20:29:04;;;;;;;36.23;19.27;;;12.50;94.60;;;;;;10294614;28;20813;-89
2022/04/23 20:34:08;;;;;;;33.37;19.20;;;12.80;93.70;;;;;;10267545;28;20348;-90
2022/04/23 20:39:31;;;;;;;38.67;21.70;;;12.50;92.30;;;;;;10241981;29;20277;-90
2022/04/23 20:44:33;;;;;;;29.20;17.43;;;11.60;89.70;;;;;;10234903;29;20234;-90
2022/04/23 20:49:36;;;;;;;28.90;17.87;;;9.90;95.60;;;;;;10235097;29;20222;-89
2022/04/23 20:54:39;;;;;;;32.57;19.60;;;10.50;99.90;;;;;;10235612;29;20285;-89
2022/04/23 20:59:41;;;;;;;32.13;20.23;;;10.30;99.90;;;;;;10221095;29;20207;-90
2022/04/23 21:04:45;;;;;;;28.63;16.60;;;11.40;99.20;;;;;;10238808;29;20277;-90
2022/04/23 21:09:49;;;;;;;30.87;18.37;;;12.10;96.90;;;;;;10232774;29;20210;-90
2022/04/23 21:14:52;;;;;;;28.73;17.00;;;12.20;95.20;;;;;;10266344;28;20382;-90
2022/04/23 21:19:54;;;;;;;30.17;16.87;;;12.20;95.70;;;;;;10234910;28;20222;-90
2022/04/23 21:24:59;;;;;;;29.83;16.37;;;12.70;94.20;;;;;;10233014;29;20700;-90
2022/04/23 21:30:03;;;;;;;31.47;15.57;;;12.70;93.50;;;;;;10250978;29;20242;-90
2022/04/23 21:35:06;;;;;;;27.90;17.80;;;12.50;94.00;;;;;;10249759;29;20712;-90
2022/04/23 21:40:15;;;;;;;24.73;15.23;;;12.80;92.50;;;;;;10236019;29;20304;-90
2022/04/23 21:45:18;;;;;;;25.97;15.47;;;12.90;92.70;;;;;;10249795;29;20289;-90
2022/04/23 21:50:21;;;;;;;26.53;15.90;;;13.10;92.40;;;;;;10238721;29;20250;-89
2022/04/23 21:55:24;;;;;;;24.17;15.03;;;13.10;91.90;;;;;;10239192;29;20314;-90
2022/04/23 22:00:31;;;;;;;28.40;15.17;;;13.00;92.10;;;;;;10225972;28;21087;-90
2022/04/23 22:05:37;;;;;;;26.63;16.13;;;12.70;92.40;;;;;;10238510;28;20241;-90
2022/04/23 22:10:39;;;;;;;39.67;21.60;;;12.80;92.40;;;;;;10233935;28;20238;-88
2022/04/23 22:15:42;;;;;;;30.60;19.97;;;11.40;92.20;;;;;;10233872;28;20720;-89
2022/04/23 22:20:44;;;;;;;24.83;18.33;;;10.20;94.30;;;;;;10225309;29;20234;-88
2022/04/23 22:25:47;;;;;;;23.30;14.90;;;10.50;98.20;;;;;;10210602;29;20271;-87
2022/04/23 22:30:49;;;;;;;28.07;16.03;;;11.40;98.20;;;;;;10246410;29;21059;-87
2022/04/23 22:35:52;;;;;;;22.77;14.77;;;12.20;95.60;;;;;;10246209;29;20293;-87
2022/04/23 22:40:54;;;;;;;24.93;14.47;;;12.80;93.80;;;;;;10280505;28;20746;-87
2022/04/23 22:45:57;;;;;;;26.00;15.20;;;13.20;92.40;;;;;;10286705;28;20303;-88
2022/04/23 22:51:00;;;;;;;24.90;14.20;;;13.20;91.90;;;;;;10284828;28;20303;-87
2022/04/23 22:56:02;;;;;;;23.60;14.67;;;13.10;91.80;;;;;;10269750;28;20312;-87
2022/04/23 23:01:05;;;;;;;22.43;14.53;;;12.80;92.30;;;;;;10287557;28;20622;-87
2022/04/23 23:06:07;;;;;;;23.33;15.57;;;12.70;92.40;;;;;;10245751;28;20696;-88
2022/04/23 23:11:10;;;;;;;19.90;13.33;;;12.40;92.50;;;;;;10252472;28;20241;-87
2022/04/23 23:16:15;;;;;;;20.83;12.83;;;12.20;93.40;;;;;;10268952;28;20293;-87
2022/04/23 23:21:17;;;;;;;21.63;14.37;;;12.20;94.00;;;;;;10250967;28;20249;-87
2022/04/23 23:26:20;;;;;;;22.57;16.73;;;12.30;93.40;;;;;;10287558;28;20308;-87
2022/04/23 23:31:24;;;;;;;24.33;14.63;;;12.30;91.50;;;;;;10270242;28;20953;-87
2022/04/23 23:36:26;;;;;;;21.27;13.10;;;12.30;93.30;;;;;;10272869;28;20316;-87
2022/04/23 23:41:29;;;;;;;20.33;13.47;;;12.70;92.90;;;;;;10237763;29;20261;-87
2022/04/23 23:46:31;;;;;;;19.43;12.60;;;13.20;91.60;;;;;;10255222;28;20270;-87
2022/04/23 23:51:34;;;;;;;19.80;13.10;;;13.40;90.80;;;;;;10291242;28;20256;-88
2022/04/23 23:56:37;;;;;;;20.90;13.30;;;13.20;90.50;;;;;;10293845;28;20265;-88
